sim
Sign-in with your pilot id or email,
or register
Callsign
Passwort

Schedule Details

Flight Number: EWG1713 (2)
Departure: Edinburgh Airport (EGPH) at 18:30
Arrival: Munich Airport (EDDM) at 20:45
Route: Eurowings Passenger Schedule. Enter filed route here before submitting Pirep.

Weather Information
Getting current METAR information for EGPH 260920Z VRB05KT 9999 SCT040 11/04 Q1016
Getting current METAR information for EDDM 260920Z 26022G32KT 9999 -DZRA SCT017 BKN025 08/04 Q1000 NOSIG

Schedule Frequency

Route Map